Time;durP1;ratioP1;P1;durP2;ratioP2;P2;SDS_P1;SDS_P2;PMS_P1;PMS_P2;Temp;Humidity;BMP_temperature;BMP_pressure;BME280_temperature;BME280_humidity;BME280_pressure;Samples;Min_cycle;Max_cycle;Signal;HPM_P1;HPM_P2
2022/11/24 00:00:28;;;;;;;65.97;12.90;;;;;;;6.32;100.00;100195.19;5052487;28;20457;-47
2022/11/24 00:02:53;;;;;;;55.45;11.50;;;;;;;6.34;100.00;100185.88;5051695;28;20025;-46
2022/11/24 00:05:19;;;;;;;59.88;11.45;;;;;;;6.37;100.00;100193.69;5052119;28;20025;-45
2022/11/24 00:07:44;;;;;;;61.25;9.85;;;;;;;6.35;100.00;100192.72;5052168;28;20025;-48
2022/11/24 00:10:09;;;;;;;60.63;11.88;;;;;;;6.38;100.00;100197.97;5051946;28;20021;-47
2022/11/24 00:12:35;;;;;;;67.72;10.40;;;;;;;6.38;100.00;100187.75;5051943;28;20067;-47
2022/11/24 00:15:00;;;;;;;58.60;10.85;;;;;;;6.36;100.00;100194.47;5052503;28;20021;-47
2022/11/24 00:17:25;;;;;;;75.68;11.45;;;;;;;6.33;100.00;100199.50;5051743;28;20017;-46
2022/11/24 00:19:51;;;;;;;65.10;12.05;;;;;;;6.28;100.00;100207.00;5051683;28;20079;-45
2022/11/24 00:22:16;;;;;;;50.55;12.07;;;;;;;6.29;100.00;100212.97;5052458;28;20091;-48
2022/11/24 00:24:41;;;;;;;73.18;15.55;;;;;;;6.28;100.00;100209.56;5051412;28;20452;-43
2022/11/24 00:27:07;;;;;;;113.25;33.70;;;;;;;6.30;100.00;100210.50;5051993;28;20075;-47
2022/11/24 00:29:32;;;;;;;78.28;17.95;;;;;;;6.26;100.00;100212.06;5052074;28;20025;-46
2022/11/24 00:31:58;;;;;;;70.20;12.38;;;;;;;6.29;100.00;100211.31;5051656;28;20037;-47
2022/11/24 00:34:23;;;;;;;65.50;15.18;;;;;;;6.35;100.00;100218.34;5051911;28;20500;-47
2022/11/24 00:36:48;;;;;;;57.25;9.85;;;;;;;6.38;100.00;100218.47;5051946;28;20029;-47
2022/11/24 00:39:14;;;;;;;55.33;9.80;;;;;;;6.38;100.00;100214.19;5054531;28;20025;-46
2022/11/24 00:41:41;;;;;;;51.50;12.25;;;;;;;6.43;100.00;100210.13;5054919;28;20021;-46
2022/11/24 00:44:06;;;;;;;71.25;12.23;;;;;;;6.43;100.00;100207.56;5055785;28;20044;-47
2022/11/24 00:46:32;;;;;;;52.08;11.13;;;;;;;6.40;100.00;100221.94;5054592;28;20033;-46
2022/11/24 00:48:59;;;;;;;60.90;12.48;;;;;;;6.37;100.00;100221.84;5055802;28;20036;-47
2022/11/24 00:51:29;;;;;;;57.05;21.33;;;;;;;6.37;100.00;100222.69;5055004;28;20029;-47
2022/11/24 00:53:55;;;;;;;53.88;10.55;;;;;;;6.31;100.00;100226.72;5054903;28;20469;-43
2022/11/24 00:56:21;;;;;;;61.03;12.15;;;;;;;6.26;100.00;100221.41;5055559;28;20029;-49
2022/11/24 00:58:46;;;;;;;65.65;19.30;;;;;;;6.32;100.00;100228.47;5054435;28;20045;-46
2022/11/24 01:01:15;;;;;;;61.85;14.75;;;;;;;6.33;100.00;100236.19;5055174;28;20044;-46
2022/11/24 01:03:41;;;;;;;69.28;14.25;;;;;;;6.32;100.00;100231.88;5054963;28;20017;-46
2022/11/24 01:06:12;;;;;;;53.55;13.05;;;;;;;6.28;100.00;100231.75;5054660;28;20495;-48
2022/11/24 01:08:39;;;;;;;59.60;9.68;;;;;;;6.28;100.00;100232.59;5054907;28;20025;-45
2022/11/24 01:11:16;;;;;;;46.72;8.20;;;;;;;6.30;100.00;100240.31;5055326;28;20017;-47
2022/11/24 01:13:44;;;;;;;65.75;11.65;;;;;;;6.25;100.00;100245.28;5054211;28;20423;-47
2022/11/24 01:16:15;;;;;;;56.63;15.23;;;;;;;6.29;100.00;100251.38;5054858;28;20059;-47
2022/11/24 01:18:40;;;;;;;48.47;9.45;;;;;;;6.29;100.00;100253.94;5054928;28;20029;-47
2022/11/24 01:21:05;;;;;;;71.90;22.05;;;;;;;6.28;100.00;100254.78;5054637;28;20029;-46
2022/11/24 01:23:32;;;;;;;47.20;8.98;;;;;;;6.24;100.00;100246.97;5054711;28;20017;-46
2022/11/24 01:25:57;;;;;;;60.75;9.88;;;;;;;6.29;100.00;100253.94;5054865;28;20025;-46
2022/11/24 01:28:22;;;;;;;61.83;10.32;;;;;;;6.32;100.00;100254.06;5054324;28;20029;-43
2022/11/24 01:30:58;;;;;;;65.75;14.10;;;;;;;6.25;100.00;100251.25;5054163;28;20032;-47
2022/11/24 01:33:23;;;;;;;53.33;8.73;;;;;;;6.17;100.00;100262.91;5054953;28;20032;-46
2022/11/24 01:35:48;;;;;;;63.35;18.75;;;;;;;6.10;100.00;100253.25;5054084;28;20078;-45
2022/11/24 01:38:13;;;;;;;86.60;26.75;;;;;;;6.14;100.00;100259.34;5054569;28;20103;-47
2022/11/24 01:40:39;;;;;;;71.63;22.27;;;;;;;6.16;100.00;100265.38;5053809;28;20047;-46
2022/11/24 01:43:15;;;;;;;61.47;8.80;;;;;;;6.14;100.00;100270.44;5054368;28;20025;-46
2022/11/24 01:45:40;;;;;;;47.35;10.68;;;;;;;6.14;100.00;100274.72;5054349;28;20037;-46
2022/11/24 01:48:15;;;;;;;65.85;13.57;;;;;;;6.12;100.00;100278.88;5054001;28;20357;-48
2022/11/24 01:50:41;;;;;;;57.63;10.68;;;;;;;6.12;100.00;100282.34;5053230;28;20025;-47
2022/11/24 01:53:09;;;;;;;73.97;13.68;;;;;;;6.10;100.00;100289.06;5054557;28;20376;-47
2022/11/24 01:55:38;;;;;;;49.10;8.60;;;;;;;6.12;100.00;100290.00;5053616;28;20040;-47
2022/11/24 01:58:17;;;;;;;61.53;10.52;;;;;;;6.14;100.00;100290.91;5054187;28;20430;-46
2022/11/24 02:00:44;;;;;;;62.50;12.75;;;;;;;6.07;100.00;100286.41;5054062;28;20056;-47
2022/11/24 02:03:16;;;;;;;55.47;9.43;;;;;;;6.03;100.00;100290.53;5053551;28;20487;-46
2022/11/24 02:05:48;;;;;;;55.08;8.23;;;;;;;5.99;100.00;100288.66;5053503;28;20473;-46
2022/11/24 02:08:25;;;;;;;65.45;11.23;;;;;;;6.04;100.00;100294.81;5054055;28;20033;-46
2022/11/24 02:10:50;;;;;;;61.27;10.23;;;;;;;6.08;100.00;100300.91;5053408;28;20028;-47
2022/11/24 02:13:16;;;;;;;56.70;10.05;;;;;;;6.12;100.00;100305.34;5053751;28;20445;-44
2022/11/24 02:15:41;;;;;;;46.38;8.60;;;;;;;6.14;100.00;100297.75;5053490;28;20029;-44
2022/11/24 02:18:07;;;;;;;61.15;12.80;;;;;;;6.16;100.00;100299.53;5053783;28;20021;-46
2022/11/24 02:20:33;;;;;;;59.75;9.88;;;;;;;6.13;100.00;100298.53;5053423;28;20025;-47
2022/11/24 02:23:18;;;;;;;57.35;9.10;;;;;;;6.16;100.00;100303.78;5053293;28;20029;-47
2022/11/24 02:26:08;;;;;;;69.65;11.15;;;;;;;6.14;100.00;100308.84;5053151;28;20473;-47
2022/11/24 02:28:34;;;;;;;65.88;13.73;;;;;;;6.10;100.00;100306.97;5053553;28;20032;-46
2022/11/24 02:31:00;;;;;;;65.47;14.70;;;;;;;6.10;100.00;100306.97;5053090;28;20029;-47
2022/11/24 02:33:26;;;;;;;60.65;14.70;;;;;;;6.07;100.00;100307.72;5053614;28;20025;-47
2022/11/24 02:35:51;;;;;;;81.30;14.80;;;;;;;6.04;100.00;100310.19;5053363;28;20536;-46
2022/11/24 02:38:17;;;;;;;71.03;12.95;;;;;;;6.02;100.00;100311.78;5053161;28;20036;-46
2022/11/24 02:40:46;;;;;;;62.03;10.93;;;;;;;6.04;100.00;100314.41;5053039;28;20017;-45
2022/11/24 02:43:19;;;;;;;69.57;14.25;;;;;;;6.06;100.00;100310.22;5053524;28;20029;-47
2022/11/24 02:45:45;;;;;;;61.28;10.93;;;;;;;6.02;100.00;100306.69;5052505;28;20024;-45
2022/11/24 02:48:10;;;;;;;67.85;14.90;;;;;;;6.09;100.00;100303.56;5053097;28;20079;-46
2022/11/24 02:50:36;;;;;;;85.65;21.13;;;;;;;6.12;100.00;100307.91;5053246;28;20035;-47
2022/11/24 02:53:01;;;;;;;77.68;14.13;;;;;;;6.20;100.00;100311.63;5052761;28;20021;-46
2022/11/24 02:55:26;;;;;;;88.50;24.95;;;;;;;6.25;100.00;100310.13;5053130;28;20033;-47
2022/11/24 02:57:51;;;;;;;65.93;11.35;;;;;;;6.29;100.00;100311.13;5052434;28;20112;-46
2022/11/24 03:00:17;;;;;;;72.65;24.95;;;;;;;6.32;100.00;100315.47;5052742;28;20047;-45
2022/11/24 03:02:42;;;;;;;68.82;15.52;;;;;;;6.34;100.00;100321.50;5052911;28;20108;-46
2022/11/24 03:05:10;;;;;;;94.90;27.67;;;;;;;6.36;100.00;100317.34;5052730;28;20017;-47
2022/11/24 03:07:36;;;;;;;74.63;19.70;;;;;;;6.36;100.00;100325.03;5052517;28;20035;-47
2022/11/24 03:10:01;;;;;;;73.97;14.27;;;;;;;6.37;100.00;100321.66;5053097;28;20021;-47
2022/11/24 03:12:26;;;;;;;72.03;14.98;;;;;;;6.39;100.00;100333.69;5052636;28;20031;-47
2022/11/24 03:14:52;;;;;;;63.50;11.77;;;;;;;6.37;100.00;100325.06;5052288;28;20070;-46
2022/11/24 03:17:17;;;;;;;88.28;27.50;;;;;;;6.34;100.00;100334.31;5053190;28;20096;-44
2022/11/24 03:19:42;;;;;;;69.72;11.18;;;;;;;6.34;100.00;100332.66;5052052;28;20052;-47
2022/11/24 03:22:08;;;;;;;60.53;10.15;;;;;;;6.34;100.00;100336.88;5052714;28;20066;-47
2022/11/24 03:24:33;;;;;;;82.72;27.55;;;;;;;6.33;100.00;100333.44;5052523;28;20484;-43
2022/11/24 03:26:58;;;;;;;55.15;11.07;;;;;;;6.39;100.00;100335.34;5052190;28;20033;-47
2022/11/24 03:29:24;;;;;;;78.35;17.63;;;;;;;6.44;100.00;100336.41;5052530;28;20044;-46
2022/11/24 03:31:49;;;;;;;92.60;32.83;;;;;;;6.49;100.00;100342.56;5052429;28;20481;-48
2022/11/24 03:34:14;;;;;;;99.00;36.72;;;;;;;6.55;100.00;100345.38;5052288;28;20025;-46
2022/11/24 03:36:40;;;;;;;76.53;11.98;;;;;;;6.58;100.00;100345.50;5052371;28;20373;-47
2022/11/24 03:39:06;;;;;;;96.28;27.88;;;;;;;6.60;100.00;100337.88;5052513;28;20025;-47
2022/11/24 03:41:31;;;;;;;72.20;12.25;;;;;;;6.63;100.00;100339.69;5051891;28;20025;-42
2022/11/24 03:43:56;;;;;;;79.35;12.18;;;;;;;6.65;100.00;100341.50;5052309;28;20020;-46
2022/11/24 03:46:22;;;;;;;69.22;16.85;;;;;;;6.66;100.00;100350.03;5052790;28;20104;-47
2022/11/24 03:48:47;;;;;;;71.65;11.35;;;;;;;6.65;100.00;100343.16;5051914;28;20096;-47
2022/11/24 03:51:12;;;;;;;88.47;11.23;;;;;;;6.68;100.00;100345.84;5052555;28;20435;-46
2022/11/24 03:53:38;;;;;;;73.40;10.32;;;;;;;6.68;100.00;100345.84;5052156;28;20460;-45
2022/11/24 03:56:03;;;;;;;64.13;10.85;;;;;;;6.69;100.00;100337.34;5051917;28;20031;-44
2022/11/24 03:58:29;;;;;;;64.72;9.75;;;;;;;6.71;100.00;100357.09;5052015;28;20091;-46
2022/11/24 04:00:55;;;;;;;75.80;11.10;;;;;;;6.74;100.00;100353.78;5052178;28;20057;-45
2022/11/24 04:03:21;;;;;;;66.53;9.93;;;;;;;6.76;100.00;100354.69;5051824;28;20075;-47
2022/11/24 04:05:47;;;;;;;59.22;10.05;;;;;;;6.78;100.00;100358.19;5051980;28;20036;-46
2022/11/24 04:08:13;;;;;;;69.32;10.18;;;;;;;6.82;100.00;100354.06;5051912;28;20052;-46
2022/11/24 04:10:38;;;;;;;69.95;10.52;;;;;;;6.82;100.00;100360.03;5051761;28;20399;-46
2022/11/24 04:13:10;;;;;;;61.72;10.60;;;;;;;6.78;100.00;100358.19;5053536;28;20104;-48
2022/11/24 04:15:39;;;;;;;70.82;9.55;;;;;;;6.74;100.00;100361.44;5055651;28;20025;-46
2022/11/24 04:18:05;;;;;;;61.88;10.25;;;;;;;6.77;100.00;100355.56;5056126;28;20029;-46
2022/11/24 04:20:30;;;;;;;63.38;10.00;;;;;;;6.78;100.00;100368.44;5056255;28;20056;-43
2022/11/24 04:22:55;;;;;;;83.57;9.73;;;;;;;6.80;100.00;100374.47;5055273;28;20060;-47
2022/11/24 04:25:20;;;;;;;75.88;10.82;;;;;;;6.83;100.00;100382.28;5055845;28;20595;-46
2022/11/24 04:27:50;;;;;;;62.75;9.13;;;;;;;6.82;100.00;100403.56;5055560;28;20095;-47
2022/11/24 04:30:16;;;;;;;79.22;10.05;;;;;;;6.81;100.00;100394.13;5055420;28;20380;-47
2022/11/24 04:32:41;;;;;;;42.47;7.13;;;;;;;6.74;100.00;100408.41;5055555;28;20037;-46
2022/11/24 04:35:07;;;;;;;49.28;7.72;;;;;;;6.66;100.00;100419.16;5056115;28;20017;-46
2022/11/24 04:37:33;;;;;;;37.45;6.03;;;;;;;6.55;100.00;100411.94;5054980;28;20025;-46
2022/11/24 04:39:58;;;;;;;31.48;4.90;;;;;;;6.46;100.00;100411.59;5055709;28;20021;-46
2022/11/24 04:42:24;;;;;;;24.10;4.38;;;;;;;6.35;100.00;100412.84;5055893;28;20025;-46
2022/11/24 04:44:49;;;;;;;27.50;5.38;;;;;;;6.30;100.00;100415.25;5055025;28;20570;-44
2022/11/24 04:47:17;;;;;;;34.03;5.75;;;;;;;6.25;100.00;100422.72;5055232;28;20040;-47
2022/11/24 04:49:42;;;;;;;27.52;5.65;;;;;;;6.20;100.00;100419.09;5055363;28;20457;-48
2022/11/24 04:52:07;;;;;;;40.40;6.20;;;;;;;6.18;100.00;100428.41;5055286;28;20185;-46
2022/11/24 04:54:33;;;;;;;43.83;7.25;;;;;;;6.13;100.00;100417.09;5054928;28;20095;-46
2022/11/24 04:56:58;;;;;;;44.67;7.15;;;;;;;6.13;100.00;100413.69;5055653;28;20459;-44
2022/11/24 04:59:23;;;;;;;47.28;7.78;;;;;;;6.09;100.00;100417.78;5054840;28;20055;-44
2022/11/24 05:01:48;;;;;;;46.08;8.05;;;;;;;6.08;100.00;100423.72;5055060;28;20029;-45
2022/11/24 05:04:14;;;;;;;50.00;8.13;;;;;;;6.09;100.00;100425.47;5055339;28;20029;-45
2022/11/24 05:06:40;;;;;;;38.30;8.30;;;;;;;6.08;100.00;100423.72;5054210;28;20037;-43
2022/11/24 05:09:06;;;;;;;50.03;8.43;;;;;;;6.08;100.00;100418.59;5055292;28;20056;-47
2022/11/24 05:11:32;;;;;;;42.08;7.82;;;;;;;6.08;100.00;100423.72;5054291;28;20025;-47
2022/11/24 05:13:57;;;;;;;44.95;8.18;;;;;;;6.09;100.00;100425.47;5055133;28;20036;-46
2022/11/24 05:16:23;;;;;;;46.08;8.55;;;;;;;6.08;100.00;100428.84;5055383;28;20528;-46
2022/11/24 05:18:48;;;;;;;52.33;8.25;;;;;;;6.08;100.00;100428.84;5054497;28;20020;-47
2022/11/24 05:21:13;;;;;;;49.05;7.32;;;;;;;6.09;100.00;100451.06;5055024;28;20028;-46
2022/11/24 05:23:39;;;;;;;43.50;7.63;;;;;;;6.09;100.00;100451.06;5054382;28;20021;-47
2022/11/24 05:26:04;;;;;;;46.58;7.03;;;;;;;6.10;100.00;100451.09;5053389;28;20398;-47
2022/11/24 05:28:30;;;;;;;42.67;8.20;;;;;;;6.10;100.00;100457.91;5054940;28;20029;-45
2022/11/24 05:31:02;;;;;;;38.05;7.10;;;;;;;6.09;100.00;100461.28;5054594;28;20388;-47
2022/11/24 05:33:29;;;;;;;39.40;5.90;;;;;;;6.09;100.00;100445.94;5054424;28;20025;-45
2022/11/24 05:35:59;;;;;;;33.40;5.80;;;;;;;6.09;100.00;100461.28;5054210;28;20028;-46
2022/11/24 05:38:25;;;;;;;37.97;6.40;;;;;;;6.08;100.00;100455.31;5054612;28;20483;-44
2022/11/24 05:40:51;;;;;;;34.33;5.93;;;;;;;6.08;100.00;100462.09;5053887;28;20374;-47
2022/11/24 05:43:16;;;;;;;32.75;6.13;;;;;;;6.07;100.00;100465.47;5054640;28;20028;-46
2022/11/24 05:45:42;;;;;;;30.13;6.25;;;;;;;6.05;100.00;100464.53;5054380;28;20528;-47
2022/11/24 05:48:11;;;;;;;38.05;6.78;;;;;;;6.04;100.00;100473.91;5054063;28;20037;-46
2022/11/24 05:50:37;;;;;;;44.72;6.55;;;;;;;6.06;100.00;100473.97;5053992;28;20041;-47
2022/11/24 05:53:04;;;;;;;34.92;5.70;;;;;;;6.04;100.00;100480.69;5054330;28;20029;-47
2022/11/24 05:55:30;;;;;;;34.63;6.10;;;;;;;6.05;100.00;100477.31;5054151;28;20043;-46
2022/11/24 05:58:00;;;;;;;41.42;5.75;;;;;;;6.04;100.00;100484.13;5053852;28;20476;-46
2022/11/24 06:00:26;;;;;;;31.35;6.25;;;;;;;6.04;100.00;100494.38;5054493;28;20041;-47
2022/11/24 06:02:52;;;;;;;42.92;6.57;;;;;;;6.05;100.00;100500.34;5053144;28;20461;-46
2022/11/24 06:05:17;;;;;;;34.60;6.43;;;;;;;6.04;100.00;100502.03;5054239;28;20111;-47
2022/11/24 06:07:42;;;;;;;36.30;6.45;;;;;;;6.05;100.00;100505.47;5053514;28;20029;-43
2022/11/24 06:10:08;;;;;;;44.60;6.70;;;;;;;6.06;100.00;100507.22;5053548;28;20498;-47
2022/11/24 06:12:34;;;;;;;42.55;7.00;;;;;;;6.08;100.00;100518.38;5054060;28;20532;-46
2022/11/24 06:14:59;;;;;;;42.08;8.05;;;;;;;6.09;100.00;100510.78;5053443;28;20029;-47
2022/11/24 06:17:24;;;;;;;35.13;7.10;;;;;;;6.16;100.00;100516.13;5053844;28;20067;-46
2022/11/24 06:19:50;;;;;;;46.15;7.70;;;;;;;6.19;100.00;100514.59;5053785;28;20104;-47
2022/11/24 06:22:17;;;;;;;47.30;8.18;;;;;;;6.23;100.00;100520.72;5053316;28;20017;-46
2022/11/24 06:24:43;;;;;;;42.70;7.50;;;;;;;6.26;100.00;100533.63;5053431;28;20063;-47
2022/11/24 06:27:08;;;;;;;36.45;6.97;;;;;;;6.29;100.00;100538.91;5053606;28;20437;-45
2022/11/24 06:29:33;;;;;;;41.17;7.72;;;;;;;6.31;100.00;100538.97;5052893;28;20031;-45
2022/11/24 06:31:58;;;;;;;47.90;7.40;;;;;;;6.28;100.00;100546.53;5053486;28;20075;-45
2022/11/24 06:34:24;;;;;;;34.03;6.93;;;;;;;6.26;100.00;100552.44;5053790;28;20048;-45
2022/11/24 06:36:49;;;;;;;36.40;7.93;;;;;;;6.26;100.00;100557.56;5052318;28;20037;-44
2022/11/24 06:39:14;;;;;;;33.40;6.50;;;;;;;6.26;100.00;100562.69;5053230;28;20025;-45
2022/11/24 06:41:40;;;;;;;32.45;6.90;;;;;;;6.25;100.00;100570.28;5053190;28;20052;-46
2022/11/24 06:44:05;;;;;;;43.67;7.43;;;;;;;6.25;100.00;100577.97;5052930;28;20025;-45
2022/11/24 06:46:30;;;;;;;35.08;6.15;;;;;;;6.23;100.00;100582.13;5053020;28;20080;-43
2022/11/24 06:48:56;;;;;;;29.25;5.82;;;;;;;6.25;100.00;100583.97;5053169;28;20053;-47
2022/11/24 06:51:21;;;;;;;41.47;7.13;;;;;;;6.28;100.00;100584.91;5052796;28;20064;-47
2022/11/24 06:53:46;;;;;;;28.50;5.60;;;;;;;6.25;100.00;100591.63;5052731;28;20469;-46
2022/11/24 06:56:13;;;;;;;36.47;6.07;;;;;;;6.20;100.00;100598.22;5053101;28;20086;-48
2022/11/24 06:58:43;;;;;;;30.05;6.47;;;;;;;6.14;100.00;100618.44;5052210;28;20037;-44
2022/11/24 07:01:12;;;;;;;23.38;5.50;;;;;;;6.11;100.00;100613.19;5053004;28;20051;-46
2022/11/24 07:03:37;;;;;;;26.88;5.72;;;;;;;6.07;100.00;100619.84;5052857;28;20021;-46
2022/11/24 07:06:03;;;;;;;29.63;5.47;;;;;;;6.02;100.00;100623.03;5052077;28;20036;-46
2022/11/24 07:08:28;;;;;;;27.38;4.63;;;;;;;6.02;100.00;100633.25;5053145;28;20426;-47
2022/11/24 07:10:53;;;;;;;25.15;4.65;;;;;;;5.99;100.00;100635.66;5052838;28;20025;-46
2022/11/24 07:13:19;;;;;;;24.48;4.95;;;;;;;5.94;100.00;100643.97;5052271;28;20021;-46
2022/11/24 07:15:45;;;;;;;27.10;4.57;;;;;;;5.88;100.00;100656.50;5052625;28;20061;-46
2022/11/24 07:18:10;;;;;;;25.63;5.00;;;;;;;5.84;100.00;100652.03;5052324;28;20029;-45
2022/11/24 07:20:36;;;;;;;29.42;5.22;;;;;;;5.83;100.00;100662.22;5052228;28;20064;-46
2022/11/24 07:23:01;;;;;;;24.30;5.47;;;;;;;5.83;100.00;100665.63;5052740;28;20033;-50
2022/11/24 07:25:26;;;;;;;24.25;5.45;;;;;;;5.83;100.00;100677.56;5052138;28;20110;-46
2022/11/24 07:27:56;;;;;;;31.30;6.13;;;;;;;5.82;100.00;100686.03;5052117;28;20043;-47
2022/11/24 07:30:21;;;;;;;24.67;5.75;;;;;;;5.84;100.00;100684.44;5052678;28;20040;-44
2022/11/24 07:32:47;;;;;;;22.25;5.03;;;;;;;5.87;100.00;100695.66;5051702;28;20021;-47
2022/11/24 07:35:12;;;;;;;20.83;4.82;;;;;;;5.89;100.00;100694.06;5052459;28;20033;-47
2022/11/24 07:37:37;;;;;;;30.38;5.32;;;;;;;5.90;100.00;100700.94;5052538;28;20033;-46
2022/11/24 07:40:03;;;;;;;27.75;4.53;;;;;;;5.92;100.00;100701.00;5052092;28;20399;-47
2022/11/24 07:42:29;;;;;;;30.55;5.00;;;;;;;5.92;100.00;100698.44;5052420;28;20033;-46
2022/11/24 07:44:54;;;;;;;30.73;6.25;;;;;;;5.92;100.00;100699.28;5052153;28;20092;-47
2022/11/24 07:47:19;;;;;;;26.30;5.03;;;;;;;5.90;100.00;100711.16;5052003;28;20033;-45
2022/11/24 07:49:44;;;;;;;24.63;4.28;;;;;;;5.86;100.00;100714.38;5056063;28;20021;-44
2022/11/24 07:52:10;;;;;;;31.88;4.82;;;;;;;5.83;100.00;100721.91;5056794;28;20021;-46
2022/11/24 07:54:35;;;;;;;26.83;4.70;;;;;;;5.77;100.00;100724.16;5055570;28;20028;-45
2022/11/24 07:57:00;;;;;;;28.02;4.68;;;;;;;5.73;100.00;100707.81;5056553;28;20379;-46
2022/11/24 07:59:25;;;;;;;28.15;5.18;;;;;;;5.68;100.00;100723.72;5056389;28;20041;-46
2022/11/24 08:01:51;;;;;;;37.20;6.03;;;;;;;5.73;100.00;100722.28;5055617;28;20083;-46
2022/11/24 08:04:16;;;;;;;34.25;6.82;;;;;;;5.75;100.00;100731.78;5056236;28;20448;-47
2022/11/24 08:06:41;;;;;;;21.92;4.85;;;;;;;5.78;100.00;100728.47;5056008;28;20025;-47
2022/11/24 08:09:07;;;;;;;28.08;5.53;;;;;;;5.78;100.00;100731.03;5055748;28;20495;-44
2022/11/24 08:11:33;;;;;;;30.67;4.90;;;;;;;5.76;100.00;100733.53;5056230;28;20032;-47
2022/11/24 08:13:58;;;;;;;26.17;5.32;;;;;;;5.80;100.00;100747.34;5056341;28;20384;-46
2022/11/24 08:16:24;;;;;;;39.08;5.40;;;;;;;5.79;100.00;100743.03;5055555;28;20480;-47
2022/11/24 08:18:51;;;;;;;30.42;5.47;;;;;;;5.73;100.00;100750.41;5055865;28;20033;-47
2022/11/24 08:21:16;;;;;;;35.00;5.40;;;;;;;5.80;100.00;100747.34;5056160;28;20037;-45
2022/11/24 08:23:42;;;;;;;29.17;5.00;;;;;;;5.84;100.00;100761.16;5055242;28;20028;-47
2022/11/24 08:26:12;;;;;;;35.03;5.28;;;;;;;5.86;100.00;100768.09;5056381;28;20029;-46
2022/11/24 08:28:37;;;;;;;33.80;6.43;;;;;;;5.88;100.00;100763.06;5055290;28;20036;-46
2022/11/24 08:31:05;;;;;;;34.70;5.00;;;;;;;5.88;100.00;100761.34;5055836;28;20017;-48
2022/11/24 08:33:31;;;;;;;;;;;;;;;5.90;100.00;100770.00;5056167;28;20029;-45
2022/11/24 08:36:02;;;;;;;44.83;5.97;;;;;;;5.91;100.00;100774.31;5055385;28;19917;-47
2022/11/24 08:38:27;;;;;;;31.17;4.70;;;;;;;5.92;100.00;100781.16;5055887;28;20025;-46
2022/11/24 08:40:52;;;;;;;39.38;6.07;;;;;;;5.94;100.00;100783.81;5055746;28;20028;-45
2022/11/24 08:43:17;;;;;;;32.20;5.63;;;;;;;5.92;100.00;100786.28;5055272;28;20468;-46
2022/11/24 08:45:43;;;;;;;36.28;5.93;;;;;;;5.94;100.00;100788.94;5055175;28;20031;-47
2022/11/24 08:48:08;;;;;;;23.27;5.28;;;;;;;5.94;100.00;100805.13;5055562;28;20404;-47
2022/11/24 08:50:34;;;;;;;34.15;5.90;;;;;;;5.94;100.00;100805.13;5054886;28;20476;-47
2022/11/24 08:52:59;;;;;;;37.83;6.20;;;;;;;5.99;100.00;100813.09;5055228;28;20027;-46
2022/11/24 08:55:25;;;;;;;29.00;5.80;;;;;;;6.05;100.00;100813.34;5055837;28;20021;-47
2022/11/24 08:57:50;;;;;;;41.28;6.00;;;;;;;6.10;100.00;100821.25;5054628;28;20634;-46
2022/11/24 09:00:21;;;;;;;34.25;5.63;;;;;;;6.16;100.00;100826.66;5054812;28;20056;-46
2022/11/24 09:02:54;;;;;;;39.63;6.10;;;;;;;6.21;100.00;100829.41;5055261;28;20487;-46
2022/11/24 09:05:19;;;;;;;35.00;5.75;;;;;;;6.22;100.00;100832.06;5054759;28;20047;-44
2022/11/24 09:07:44;;;;;;;33.08;5.68;;;;;;;6.28;100.00;100840.84;5055063;28;20375;-45
2022/11/24 09:10:10;;;;;;;27.33;5.72;;;;;;;6.30;100.00;100835.00;5055600;28;20033;-47
2022/11/24 09:12:35;;;;;;;39.28;6.63;;;;;;;6.36;100.00;100839.50;5054243;28;20373;-48
2022/11/24 09:15:00;;;;;;;31.50;5.97;;;;;;;6.36;100.00;100836.94;5055189;28;20087;-47
2022/11/24 09:17:25;;;;;;;38.53;5.88;;;;;;;6.41;100.00;100843.16;5055094;28;20416;-47
2022/11/24 09:19:51;;;;;;;34.58;6.03;;;;;;;6.44;100.00;100848.41;5054029;28;20036;-48
2022/11/24 09:22:18;;;;;;;32.78;6.07;;;;;;;6.50;100.00;100847.84;5055081;28;20029;-46
2022/11/24 09:24:43;;;;;;;33.10;6.45;;;;;;;6.54;100.00;100845.47;5054139;28;20041;-45
2022/11/24 09:27:08;;;;;;;41.30;7.18;;;;;;;6.59;100.00;100849.13;5054727;28;20154;-47
2022/11/24 09:29:33;;;;;;;31.42;5.93;;;;;;;6.67;100.00;100861.41;5054625;28;20481;-46
2022/11/24 09:31:59;;;;;;;44.30;6.85;;;;;;;6.73;100.00;100861.69;5054331;28;20021;-47
2022/11/24 09:34:24;;;;;;;37.35;6.60;;;;;;;6.84;100.00;100867.28;5054768;28;20031;-47
2022/11/24 09:36:50;;;;;;;42.53;7.68;;;;;;;6.99;100.00;100877.38;5054539;28;20596;-45
2022/11/24 09:39:15;;;;;;;39.92;7.60;;;;;;;7.13;100.00;100876.28;5054268;28;20021;-46
2022/11/24 09:41:59;;;;;;;45.63;7.35;;;;;;;7.32;100.00;100885.66;5054497;28;20020;-47
2022/11/24 09:44:46;;;;;;;44.22;6.68;;;;;;;7.54;100.00;100882.31;5054573;28;20021;-47
2022/11/24 09:47:23;;;;;;;44.65;7.38;;;;;;;7.69;100.00;100891.47;5053705;28;20102;-46
2022/11/24 09:49:59;;;;;;;40.08;6.45;;;;;;;7.88;100.00;100893.97;5054353;28;20103;-47
2022/11/24 09:53:02;;;;;;;41.00;7.07;;;;;;;8.04;100.00;100894.59;5054615;28;20040;-48
2022/11/24 09:55:48;;;;;;;35.70;6.88;;;;;;;8.23;100.00;100904.78;5052833;28;20424;-45
2022/11/24 09:58:36;;;;;;;39.38;7.05;;;;;;;8.29;100.00;100908.44;5054256;28;20115;-47
2022/11/24 10:01:24;;;;;;;44.63;7.13;;;;;;;8.28;100.00;100919.53;5053768;28;20033;-46
2022/11/24 10:03:51;;;;;;;50.50;7.93;;;;;;;8.35;100.00;100909.56;5053554;28;20064;-47
2022/11/24 10:06:31;;;;;;;41.10;6.70;;;;;;;8.42;100.00;100923.53;5054228;28;20021;-46
2022/11/24 10:09:09;;;;;;;38.88;7.35;;;;;;;8.45;99.27;100915.94;5053531;28;20024;-47
2022/11/24 10:11:46;;;;;;;46.20;7.18;;;;;;;8.52;99.59;100925.66;5052993;28;20083;-46
2022/11/24 10:14:37;;;;;;;39.15;7.18;;;;;;;8.56;98.89;100929.25;5053617;28;20025;-48
2022/11/24 10:17:17;;;;;;;45.53;6.53;;;;;;;8.55;98.99;100933.47;5054087;28;20048;-47
2022/11/24 10:19:56;;;;;;;47.28;8.07;;;;;;;8.62;99.66;100934.59;5053914;28;20078;-48
2022/11/24 10:22:41;;;;;;;39.75;6.97;;;;;;;8.83;100.00;100933.66;5053283;28;20116;-47
2022/11/24 10:25:41;;;;;;;36.53;7.15;;;;;;;8.95;99.37;100936.72;5054084;28;20029;-46
2022/11/24 10:28:13;;;;;;;51.10;8.48;;;;;;;9.00;96.84;100932.63;5053102;28;20067;-47
2022/11/24 10:30:39;;;;;;;51.28;7.63;;;;;;;9.02;96.69;100937.81;5053312;28;20025;-46
2022/11/24 10:33:21;;;;;;;34.70;6.47;;;;;;;9.15;97.81;100950.28;5053880;28;20021;-49
2022/11/24 10:36:03;;;;;;;39.15;6.57;;;;;;;9.30;95.21;100944.00;5052910;28;20035;-48
2022/11/24 10:38:51;;;;;;;44.38;8.50;;;;;;;9.38;95.54;100955.41;5053301;28;20116;-48
2022/11/24 10:41:28;;;;;;;32.28;7.05;;;;;;;9.63;94.81;100953.72;5042978;28;20041;-49
2022/11/24 10:43:56;;;;;;;40.20;8.63;;;;;;;9.70;91.99;100958.28;5052511;28;20032;-48
2022/11/24 10:46:25;;;;;;;39.53;6.43;;;;;;;9.80;91.45;100952.63;5053236;28;20283;-48
2022/11/24 10:49:00;;;;;;;41.28;6.97;;;;;;;9.83;91.14;100952.72;5053120;28;20140;-47
2022/11/24 10:51:50;;;;;;;42.78;7.45;;;;;;;10.02;90.96;100950.78;5052694;28;20029;-48
2022/11/24 10:54:21;;;;;;;49.15;7.90;;;;;;;9.97;89.57;100954.91;5053418;28;20028;-46
2022/11/24 10:56:50;;;;;;;38.30;7.07;;;;;;;10.05;89.46;100956.00;5052390;28;20460;-47
2022/11/24 10:59:36;;;;;;;40.67;6.75;;;;;;;10.03;89.25;100955.06;5052679;28;20057;-48
2022/11/24 11:02:22;;;;;;;41.95;6.38;;;;;;;10.01;88.77;100952.44;5053302;28;20032;-48
2022/11/24 11:04:47;;;;;;;42.20;7.13;;;;;;;10.08;88.78;100948.38;5051910;28;20484;-44
2022/11/24 11:07:24;;;;;;;36.83;6.30;;;;;;;10.33;88.75;100944.06;5053154;28;20025;-48
2022/11/24 11:09:56;;;;;;;44.10;6.97;;;;;;;10.37;86.84;100940.78;5052727;28;20021;-47
2022/11/24 11:12:26;;;;;;;46.10;6.22;;;;;;;10.38;86.20;100947.69;5052480;28;20032;-47
2022/11/24 11:14:52;;;;;;;32.78;6.97;;;;;;;10.46;86.18;100942.78;5052618;28;20071;-47
2022/11/24 11:17:29;;;;;;;40.20;6.53;;;;;;;10.41;86.38;100950.34;5052373;28;20017;-48